createdAt,value
2023-04-11T00:01:30.087Z,100929.98
2023-04-11T00:03:59.428Z,100933.95
2023-04-11T00:06:27.820Z,100925.80
2023-04-11T00:08:57.038Z,100928.05
2023-04-11T00:11:25.398Z,100924.78
2023-04-11T00:13:58.886Z,100925.50
2023-04-11T00:16:26.925Z,100922.51
2023-04-11T00:18:57.334Z,100915.27
2023-04-11T00:21:25.525Z,100914.90
2023-04-11T00:23:54.280Z,100914.23
2023-04-11T00:26:22.226Z,100910.83
2023-04-11T00:28:50.293Z,100909.66
2023-04-11T00:31:18.416Z,100910.51
2023-04-11T00:33:46.286Z,100902.13
2023-04-11T00:36:14.367Z,100897.30
2023-04-11T00:38:42.424Z,100899.52
2023-04-11T00:41:11.137Z,100895.95
2023-04-11T00:43:39.084Z,100893.17
2023-04-11T00:46:09.439Z,100893.03
2023-04-11T00:48:37.596Z,100893.33
2023-04-11T00:51:05.677Z,100891.04
2023-04-11T00:53:35.327Z,100883.74
2023-04-11T00:56:03.270Z,100874.40
2023-04-11T00:58:32.159Z,100870.35
2023-04-11T01:01:00.789Z,100864.40
2023-04-11T01:03:29.258Z,100855.35
2023-04-11T01:05:57.542Z,100851.39
2023-04-11T01:08:26.520Z,100845.73
2023-04-11T01:10:54.543Z,100839.35
2023-04-11T01:13:22.665Z,100837.92
2023-04-11T01:15:50.508Z,100833.12
2023-04-11T01:18:18.597Z,100833.92
2023-04-11T01:20:46.942Z,100830.05
2023-04-11T01:23:21.526Z,100826.63
2023-04-11T01:25:50.403Z,100825.35
2023-04-11T01:28:19.543Z,100822.21
2023-04-11T01:30:47.934Z,100820.00
2023-04-11T01:33:16.729Z,100814.50
2023-04-11T01:35:44.712Z,100809.73
2023-04-11T01:38:12.753Z,100802.81
2023-04-11T01:40:41.749Z,100803.17
2023-04-11T01:43:10.035Z,100802.32
2023-04-11T01:45:38.820Z,100796.92
2023-04-11T01:48:08.567Z,100789.73
2023-04-11T01:50:36.661Z,100784.13
2023-04-11T01:53:05.811Z,100784.51
2023-04-11T01:55:34.043Z,100781.58
2023-04-11T01:58:01.994Z,100778.70
2023-04-11T02:00:29.931Z,100779.38
2023-04-11T02:02:58.069Z,100777.27
2023-04-11T02:05:26.267Z,100774.58
2023-04-11T02:07:56.981Z,100772.74
2023-04-11T02:10:24.905Z,100760.52
2023-04-11T02:12:52.860Z,100756.73
2023-04-11T02:15:21.039Z,100759.02
2023-04-11T02:17:49.558Z,100756.48
2023-04-11T02:20:17.524Z,100756.81
2023-04-11T02:22:45.781Z,100751.77
2023-04-11T02:25:16.756Z,100748.98
2023-04-11T02:27:44.688Z,100750.51
2023-04-11T02:30:12.678Z,100746.16
2023-04-11T02:32:40.818Z,100742.00
2023-04-11T02:35:09.033Z,100738.61
2023-04-11T02:37:37.488Z,100731.13
2023-04-11T02:40:06.337Z,100718.96
2023-04-11T02:42:34.405Z,100719.75
2023-04-11T02:45:02.750Z,100721.02
2023-04-11T02:47:30.670Z,100717.52
2023-04-11T02:50:02.668Z,100712.45
2023-04-11T02:52:34.841Z,100707.65
2023-04-11T02:55:03.034Z,100704.22
2023-04-11T02:57:31.264Z,100700.30
2023-04-11T02:59:59.775Z,100693.59
2023-04-11T03:02:36.196Z,100687.85
2023-04-11T03:05:04.589Z,100686.91
2023-04-11T03:07:34.613Z,100675.33
2023-04-11T03:10:02.486Z,100667.21
2023-04-11T03:12:30.488Z,100668.02
2023-04-11T03:15:00.589Z,100663.38
2023-04-11T03:17:29.140Z,100665.35
2023-04-11T03:19:57.532Z,100661.82
2023-04-11T03:22:26.018Z,100656.20
2023-04-11T03:24:53.937Z,100656.92
2023-04-11T03:27:23.000Z,100646.98
2023-04-11T03:29:53.824Z,100639.10
2023-04-11T03:32:34.421Z,100640.60
2023-04-11T03:35:02.353Z,100640.04
2023-04-11T03:37:30.539Z,100634.76
2023-04-11T03:39:58.381Z,100630.46
2023-04-11T03:42:26.498Z,100622.89
2023-04-11T03:44:58.020Z,100615.35
2023-04-11T03:47:26.378Z,100610.24
2023-04-11T03:49:54.833Z,100602.30
2023-04-11T03:52:23.311Z,100600.04
2023-04-11T03:54:51.975Z,100591.57
2023-04-11T03:57:20.235Z,100591.25
2023-04-11T03:59:48.180Z,100582.04
2023-04-11T04:02:16.536Z,100581.75
2023-04-11T04:04:58.797Z,100580.88
2023-04-11T04:07:30.217Z,100582.83
2023-04-11T04:10:07.462Z,100580.45
2023-04-11T04:12:36.869Z,100576.89
2023-04-11T04:15:21.581Z,100578.39
2023-04-11T04:17:51.561Z,100567.61
2023-04-11T04:20:26.767Z,100567.86
2023-04-11T04:22:58.116Z,100566.45
2023-04-11T04:25:34.548Z,100568.84
2023-04-11T04:28:03.282Z,100566.41
2023-04-11T04:30:38.250Z,100560.86
2023-04-11T04:33:12.577Z,100560.72
2023-04-11T04:35:45.055Z,100555.05
2023-04-11T04:38:18.108Z,100550.94
2023-04-11T04:40:57.335Z,100542.45
2023-04-11T04:43:27.356Z,100537.33
2023-04-11T04:46:02.686Z,100532.05
2023-04-11T04:48:36.763Z,100526.63
2023-04-11T04:51:05.696Z,100524.02
2023-04-11T04:53:38.875Z,100522.88
2023-04-11T04:56:08.407Z,100512.45
2023-04-11T04:58:41.565Z,100501.91
2023-04-11T05:01:12.456Z,100502.21
2023-04-11T05:03:40.531Z,100495.23
2023-04-11T05:06:13.770Z,100496.63
2023-04-11T05:08:44.284Z,100487.13
2023-04-11T05:11:12.691Z,100479.20
2023-04-11T05:13:40.602Z,100472.70
2023-04-11T05:16:09.180Z,100470.20
2023-04-11T05:18:37.090Z,100471.94
2023-04-11T05:21:05.438Z,100467.42
2023-04-11T05:23:39.427Z,100464.96
2023-04-11T05:26:08.540Z,100463.66
2023-04-11T05:28:37.545Z,100467.41
2023-04-11T05:31:12.255Z,100469.73
2023-04-11T05:33:42.156Z,100464.55
2023-04-11T05:36:14.555Z,100452.42
2023-04-11T05:38:44.295Z,100441.25
2023-04-11T05:41:13.139Z,100441.20
2023-04-11T05:43:41.109Z,100433.14
2023-04-11T05:46:10.100Z,100429.59
2023-04-11T05:48:38.576Z,100425.77
2023-04-11T05:51:07.876Z,100417.52
2023-04-11T05:53:36.096Z,100419.79
2023-04-11T05:56:06.822Z,100423.58
2023-04-11T05:58:36.513Z,100429.65
2023-04-11T06:01:05.247Z,100429.79
2023-04-11T06:03:33.242Z,100431.72
2023-04-11T06:06:01.268Z,100423.07
2023-04-11T06:08:29.373Z,100423.54
2023-04-11T06:10:57.231Z,100424.59
2023-04-11T06:13:26.149Z,100422.23
2023-04-11T06:15:54.122Z,100414.88
2023-04-11T06:18:21.953Z,100407.48
2023-04-11T06:20:49.953Z,100406.76
2023-04-11T06:23:17.874Z,100405.27
2023-04-11T06:25:46.155Z,100404.05
2023-04-11T06:28:14.282Z,100404.08
2023-04-11T06:30:42.175Z,100398.90
2023-04-11T06:33:10.134Z,100402.42
2023-04-11T06:35:38.150Z,100395.89
2023-04-11T06:38:06.008Z,100392.89
2023-04-11T06:40:34.066Z,100387.87
2023-04-11T06:43:01.944Z,100383.30
2023-04-11T06:45:29.842Z,100382.15
2023-04-11T06:47:57.703Z,100381.94
2023-04-11T06:50:25.620Z,100383.87
2023-04-11T06:52:53.661Z,100381.45
2023-04-11T06:55:23.113Z,100373.84
2023-04-11T06:57:51.187Z,100374.41
2023-04-11T07:00:19.984Z,100369.04
2023-04-11T07:02:48.035Z,100366.21
2023-04-11T07:05:16.465Z,100365.38
2023-04-11T07:07:44.321Z,100357.17
2023-04-11T07:10:12.434Z,100356.52
2023-04-11T07:12:40.498Z,100349.54
2023-04-11T07:15:09.354Z,100345.30
2023-04-11T07:17:37.216Z,100340.42
2023-04-11T07:20:08.922Z,100340.27
2023-04-11T07:22:37.219Z,100331.91
2023-04-11T07:25:05.376Z,100324.20
2023-04-11T07:27:33.570Z,100320.52
2023-04-11T07:30:01.562Z,100318.26
2023-04-11T07:32:29.470Z,100315.89
2023-04-11T07:34:57.292Z,100314.06
2023-04-11T07:37:27.098Z,100310.33
2023-04-11T07:39:54.973Z,100306.48
2023-04-11T07:42:22.829Z,100304.14
2023-04-11T07:44:51.108Z,100305.20
2023-04-11T07:47:18.984Z,100302.66
2023-04-11T07:49:46.779Z,100298.15
2023-04-11T07:52:14.669Z,100299.98
2023-04-11T07:54:42.612Z,100301.90
2023-04-11T07:57:10.393Z,100299.58
2023-04-11T07:59:38.198Z,100299.73
2023-04-11T08:02:08.224Z,100301.19
2023-04-11T08:04:37.831Z,100299.42
2023-04-11T08:07:06.946Z,100293.94
2023-04-11T08:09:34.860Z,100293.07
2023-04-11T08:12:03.560Z,100289.09
2023-04-11T08:14:31.413Z,100287.58
2023-04-11T08:16:59.726Z,100280.02
2023-04-11T08:19:27.667Z,100279.10
2023-04-11T08:21:55.504Z,100276.54
2023-04-11T08:24:23.297Z,100272.90
2023-04-11T08:26:51.124Z,100271.87
2023-04-11T08:29:18.955Z,100270.90
2023-04-11T08:31:46.928Z,100268.72
2023-04-11T08:34:14.867Z,100271.30
2023-04-11T08:36:42.735Z,100269.06
2023-04-11T08:39:11.967Z,100267.23
2023-04-11T08:41:40.131Z,100266.48
2023-04-11T08:44:12.500Z,100260.28
2023-04-11T08:46:42.556Z,100260.67
2023-04-11T08:49:11.220Z,100263.36
2023-04-11T08:51:43.502Z,100261.55
2023-04-11T08:54:12.260Z,100260.98
2023-04-11T08:56:43.149Z,100259.45
2023-04-11T08:59:11.128Z,100256.41
2023-04-11T09:01:40.901Z,100253.88
2023-04-11T09:04:10.700Z,100255.45
2023-04-11T09:06:40.332Z,100258.06
2023-04-11T09:09:08.825Z,100256.32
2023-04-11T09:11:53.700Z,100251.62
2023-04-11T09:14:26.130Z,100250.50
2023-04-11T09:17:04.887Z,100249.13
2023-04-11T09:19:34.747Z,100248.21
2023-04-11T09:22:06.196Z,100244.68
2023-04-11T09:24:35.985Z,100247.77
2023-04-11T09:27:16.726Z,100241.98
2023-04-11T09:29:46.620Z,100236.98
2023-04-11T09:32:34.173Z,100233.71
2023-04-11T09:35:20.692Z,100233.17
2023-04-11T09:37:51.058Z,100226.20
2023-04-11T09:40:21.346Z,100223.56
2023-04-11T09:42:56.420Z,100219.87
2023-04-11T09:45:25.654Z,100213.08
2023-04-11T09:47:59.489Z,100212.17
2023-04-11T09:50:28.399Z,100210.63
2023-04-11T09:52:58.942Z,100205.86
2023-04-11T09:55:27.443Z,100204.33
2023-04-11T09:57:55.394Z,100199.52
2023-04-11T10:00:32.374Z,100189.94
2023-04-11T10:03:00.484Z,100189.13
2023-04-11T10:05:30.625Z,100185.88
2023-04-11T10:08:22.386Z,100189.73
2023-04-11T10:10:52.925Z,100190.21
2023-04-11T10:13:38.689Z,100188.57
2023-04-11T10:16:18.798Z,100189.17
2023-04-11T10:18:52.932Z,100188.06
2023-04-11T10:21:41.060Z,100185.85
2023-04-11T10:24:14.164Z,100182.57
2023-04-11T10:26:55.267Z,100185.58
2023-04-11T10:29:33.350Z,100183.83
2023-04-11T10:32:12.275Z,100180.30
2023-04-11T10:35:00.069Z,100183.66
2023-04-11T10:37:32.941Z,100180.23
2023-04-11T10:40:00.996Z,100180.71
2023-04-11T10:42:33.774Z,100176.27
2023-04-11T10:45:27.692Z,100179.52
2023-04-11T10:47:58.777Z,100179.48
2023-04-11T10:50:26.835Z,100175.45
2023-04-11T10:52:59.098Z,100176.69
2023-04-11T10:55:28.979Z,100178.99
2023-04-11T10:58:08.347Z,100174.64
2023-04-11T11:00:51.993Z,100175.81
2023-04-11T11:03:31.756Z,100187.63
2023-04-11T11:05:59.845Z,100191.89
2023-04-11T11:08:33.167Z,100190.50
2023-04-11T11:11:01.975Z,100197.55
2023-04-11T11:13:44.436Z,100198.80
2023-04-11T11:16:18.196Z,100198.73
2023-04-11T11:18:49.146Z,100197.30
2023-04-11T11:21:26.753Z,100194.75
2023-04-11T11:24:01.057Z,100199.16
2023-04-11T11:26:39.974Z,100197.42
2023-04-11T11:29:09.126Z,100197.41
2023-04-11T11:31:47.835Z,100200.73
2023-04-11T11:34:30.113Z,100202.05
2023-04-11T11:36:59.722Z,100202.61
2023-04-11T11:39:29.171Z,100203.10
2023-04-11T11:41:58.167Z,100206.85
2023-04-11T11:44:28.974Z,100205.08
2023-04-11T11:47:15.401Z,100202.70
2023-04-11T11:49:54.206Z,100201.89
2023-04-11T11:52:34.153Z,100197.89
2023-04-11T11:55:06.851Z,100193.77
2023-04-11T11:57:49.822Z,100193.55
2023-04-11T12:00:38.019Z,100188.27
2023-04-11T12:03:10.289Z,100190.19
2023-04-11T12:05:38.710Z,100191.86
2023-04-11T12:08:07.875Z,100196.58
2023-04-11T12:10:50.266Z,100199.75
2023-04-11T12:13:22.473Z,100202.08
2023-04-11T12:16:00.524Z,100199.72
2023-04-11T12:18:28.849Z,100203.46
2023-04-11T12:20:56.672Z,100204.85
2023-04-11T12:23:24.751Z,100204.14
2023-04-11T12:25:52.585Z,100207.66
2023-04-11T12:28:20.624Z,100211.33
2023-04-11T12:30:48.594Z,100214.60
2023-04-11T12:33:16.585Z,100223.91
2023-04-11T12:35:44.609Z,100219.25
2023-04-11T12:38:14.983Z,100219.41
2023-04-11T12:40:46.362Z,100223.05
2023-04-11T12:43:14.315Z,100222.50
2023-04-11T12:45:42.230Z,100223.15
2023-04-11T12:48:10.528Z,100226.52
2023-04-11T12:50:38.591Z,100226.91
2023-04-11T12:53:06.497Z,100227.23
2023-04-11T12:55:37.297Z,100229.00
2023-04-11T12:58:05.176Z,100228.20
2023-04-11T13:00:33.067Z,100227.77
2023-04-11T13:03:01.188Z,100225.33
2023-04-11T13:05:30.165Z,100224.69
2023-04-11T13:07:58.048Z,100222.08
2023-04-11T13:10:26.280Z,100222.14
2023-04-11T13:12:58.633Z,100221.42
2023-04-11T13:15:28.744Z,100219.90
2023-04-11T13:17:56.610Z,100219.33
2023-04-11T13:20:24.496Z,100218.13
2023-04-11T13:22:52.368Z,100218.66
2023-04-11T13:25:20.398Z,100222.51
2023-04-11T13:27:48.484Z,100220.41
2023-04-11T13:30:16.392Z,100226.26
2023-04-11T13:32:44.358Z,100229.08
2023-04-11T13:35:12.218Z,100229.61
2023-04-11T13:37:40.112Z,100235.73
2023-04-11T13:40:08.775Z,100240.02
2023-04-11T13:42:36.696Z,100244.67
2023-04-11T13:45:04.886Z,100244.40
2023-04-11T13:47:36.029Z,100248.09
2023-04-11T13:50:08.243Z,100255.21
2023-04-11T13:52:36.215Z,100256.79
2023-04-11T13:55:04.394Z,100255.05
2023-04-11T13:57:32.285Z,100251.35
2023-04-11T14:00:00.127Z,100246.40
2023-04-11T14:02:28.137Z,100253.27
2023-04-11T14:04:56.392Z,100249.61
2023-04-11T14:07:24.422Z,100254.09
2023-04-11T14:09:52.369Z,100257.38
2023-04-11T14:12:20.232Z,100259.06
2023-04-11T14:14:48.147Z,100259.35
2023-04-11T14:17:16.159Z,100260.89
2023-04-11T14:19:44.109Z,100261.46
2023-04-11T14:22:12.109Z,100267.39
2023-04-11T14:24:40.020Z,100267.41
2023-04-11T14:27:08.659Z,100268.35
2023-04-11T14:29:37.694Z,100269.16
2023-04-11T14:32:07.402Z,100274.25
2023-04-11T14:34:35.349Z,100272.95
2023-04-11T14:37:03.542Z,100271.05
2023-04-11T14:39:31.924Z,100271.63
2023-04-11T14:42:02.080Z,100269.81
2023-04-11T14:44:30.508Z,100271.71
2023-04-11T14:46:58.456Z,100273.70
2023-04-11T14:49:26.342Z,100273.19
2023-04-11T14:51:54.277Z,100271.77
2023-04-11T14:54:24.187Z,100274.04
2023-04-11T14:56:52.496Z,100277.55
2023-04-11T14:59:21.016Z,100272.53
2023-04-11T15:01:49.330Z,100271.39
2023-04-11T15:04:17.658Z,100268.14
2023-04-11T15:06:45.770Z,100273.16
2023-04-11T15:09:13.784Z,100272.52
2023-04-11T15:11:41.649Z,100271.34
2023-04-11T15:14:09.515Z,100272.41
2023-04-11T15:16:37.447Z,100272.63
2023-04-11T15:19:05.685Z,100275.59
2023-04-11T15:21:33.484Z,100278.23
2023-04-11T15:24:06.571Z,100276.52
2023-04-11T15:26:34.592Z,100273.44
2023-04-11T15:29:02.534Z,100268.28
2023-04-11T15:31:30.767Z,100263.05
2023-04-11T15:34:01.504Z,100252.19
2023-04-11T15:36:29.851Z,100236.46
2023-04-11T15:38:58.049Z,100232.84
2023-04-11T15:41:26.204Z,100231.97
2023-04-11T15:43:54.035Z,100239.42
2023-04-11T15:46:21.913Z,100237.61
2023-04-11T15:48:49.769Z,100236.20
2023-04-11T15:51:17.613Z,100232.38
2023-04-11T15:53:45.490Z,100228.14
2023-04-11T15:56:13.643Z,100226.64
2023-04-11T15:58:42.279Z,100225.68
2023-04-11T16:01:25.855Z,100228.84
2023-04-11T16:03:54.478Z,100232.66
2023-04-11T16:06:22.575Z,100229.25
2023-04-11T16:08:51.067Z,100230.09
2023-04-11T16:11:18.999Z,100231.28
2023-04-11T16:13:46.927Z,100235.77
2023-04-11T16:16:14.949Z,100237.59
2023-04-11T16:18:42.973Z,100241.61
2023-04-11T16:21:15.905Z,100243.08
2023-04-11T16:23:43.956Z,100244.54
2023-04-11T16:26:12.231Z,100248.43
2023-04-11T16:28:40.815Z,100246.19
2023-04-11T16:31:09.584Z,100249.39
2023-04-11T16:33:37.490Z,100245.30
2023-04-11T16:36:06.402Z,100246.19
2023-04-11T16:38:34.777Z,100249.49
2023-04-11T16:41:03.597Z,100249.33
2023-04-11T16:43:31.869Z,100252.09
2023-04-11T16:45:59.922Z,100252.95
2023-04-11T16:48:28.289Z,100255.44
2023-04-11T16:50:56.247Z,100263.02
2023-04-11T16:53:24.343Z,100263.21
2023-04-11T16:55:53.706Z,100265.26
2023-04-11T16:58:21.733Z,100269.91
2023-04-11T17:00:51.280Z,100271.41
2023-04-11T17:03:20.123Z,100272.18
2023-04-11T17:05:49.060Z,100277.83
2023-04-11T17:08:17.961Z,100286.02
2023-04-11T17:10:45.786Z,100287.99
2023-04-11T17:13:14.920Z,100294.94
2023-04-11T17:15:43.234Z,100296.35
2023-04-11T17:18:15.117Z,100298.61
2023-04-11T17:20:43.763Z,100303.57
2023-04-11T17:23:12.440Z,100306.66
2023-04-11T17:25:40.742Z,100304.68
2023-04-11T17:28:08.816Z,100304.64
2023-04-11T17:30:37.859Z,100306.05
2023-04-11T17:33:06.323Z,100305.70
2023-04-11T17:35:34.695Z,100305.06
2023-04-11T17:38:02.960Z,100299.44
2023-04-11T17:40:31.545Z,100303.70
2023-04-11T17:42:59.675Z,100310.67
2023-04-11T17:45:28.283Z,100314.66
2023-04-11T17:47:56.474Z,100320.48
2023-04-11T17:50:24.589Z,100321.85
2023-04-11T17:52:53.219Z,100326.85
2023-04-11T17:55:21.808Z,100325.26
2023-04-11T17:57:51.721Z,100326.92
2023-04-11T18:00:23.215Z,100333.06
2023-04-11T18:02:57.829Z,100338.34
2023-04-11T18:05:29.551Z,100343.45
2023-04-11T18:07:59.637Z,100342.81
2023-04-11T18:10:30.728Z,100345.42
2023-04-11T18:12:59.030Z,100340.91
2023-04-11T18:15:28.067Z,100338.93
2023-04-11T18:17:56.656Z,100336.30
2023-04-11T18:20:24.910Z,100335.04
2023-04-11T18:22:57.484Z,100335.61
2023-04-11T18:25:25.703Z,100340.30
2023-04-11T18:27:54.048Z,100342.98
2023-04-11T18:30:22.205Z,100345.52
2023-04-11T18:32:54.035Z,100351.64
2023-04-11T18:35:23.703Z,100351.83
2023-04-11T18:37:52.053Z,100352.20
2023-04-11T18:40:20.607Z,100349.38
2023-04-11T18:42:53.195Z,100353.13
2023-04-11T18:45:22.465Z,100354.85
2023-04-11T18:47:51.208Z,100358.80
2023-04-11T18:50:20.097Z,100362.80
2023-04-11T18:52:52.550Z,100366.48
2023-04-11T18:55:24.601Z,100370.85
2023-04-11T18:57:56.021Z,100376.83
2023-04-11T19:00:26.146Z,100379.30
2023-04-11T19:02:54.299Z,100386.00
2023-04-11T19:05:25.485Z,100387.30
2023-04-11T19:07:54.263Z,100384.09
2023-04-11T19:10:23.059Z,100382.84
2023-04-11T19:12:51.287Z,100383.30
2023-04-11T19:15:19.747Z,100384.62
2023-04-11T19:17:48.201Z,100387.55
2023-04-11T19:20:16.753Z,100383.98
2023-04-11T19:22:46.434Z,100385.40
2023-04-11T19:25:14.864Z,100385.27
2023-04-11T19:27:43.405Z,100389.63
2023-04-11T19:30:14.038Z,100386.39
2023-04-11T19:32:44.183Z,100387.60
2023-04-11T19:35:14.176Z,100385.77
2023-04-11T19:37:42.845Z,100381.55
2023-04-11T19:40:11.504Z,100387.10
2023-04-11T19:42:40.409Z,100390.44
2023-04-11T19:45:10.704Z,100390.26
2023-04-11T19:47:42.018Z,100388.56
2023-04-11T19:50:14.899Z,100393.92
2023-04-11T19:52:43.617Z,100392.42
2023-04-11T19:55:12.688Z,100389.41
2023-04-11T19:57:43.622Z,100389.80
2023-04-11T20:00:14.485Z,100389.87
2023-04-11T20:02:46.058Z,100392.23
2023-04-11T20:05:19.294Z,100391.34
2023-04-11T20:07:48.166Z,100389.84
2023-04-11T20:10:16.740Z,100392.85
2023-04-11T20:12:45.106Z,100393.01
2023-04-11T20:15:13.167Z,100394.14
2023-04-11T20:17:41.815Z,100392.14
2023-04-11T20:20:12.390Z,100392.72
2023-04-11T20:22:40.498Z,100391.70
2023-04-11T20:25:11.912Z,100398.89
2023-04-11T20:27:41.029Z,100396.17
2023-04-11T20:30:12.598Z,100399.18
2023-04-11T20:32:41.468Z,100402.30
2023-04-11T20:35:12.267Z,100400.73
2023-04-11T20:37:43.763Z,100405.20
2023-04-11T20:40:14.520Z,100413.64
2023-04-11T20:42:45.875Z,100409.17
2023-04-11T20:45:20.706Z,100415.66
2023-04-11T20:47:50.410Z,100413.05
2023-04-11T20:50:19.534Z,100414.36
2023-04-11T20:52:52.635Z,100419.73
2023-04-11T20:55:21.067Z,100421.02
2023-04-11T20:57:49.241Z,100423.00
2023-04-11T21:00:18.490Z,100425.77
2023-04-11T21:02:50.209Z,100426.09
2023-04-11T21:05:25.082Z,100427.90
2023-04-11T21:07:54.579Z,100428.02
2023-04-11T21:10:22.754Z,100431.85
2023-04-11T21:12:54.350Z,100431.55
2023-04-11T21:15:22.884Z,100433.84
2023-04-11T21:17:52.383Z,100438.52
2023-04-11T21:20:22.317Z,100439.70
2023-04-11T21:22:55.350Z,100439.31
2023-04-11T21:25:24.168Z,100439.23
2023-04-11T21:27:52.217Z,100440.71
2023-04-11T21:30:20.452Z,100438.46
2023-04-11T21:32:48.396Z,100435.12
2023-04-11T21:35:16.360Z,100432.66
2023-04-11T21:37:45.505Z,100430.55
2023-04-11T21:40:14.457Z,100433.54
2023-04-11T21:42:42.386Z,100434.92
2023-04-11T21:45:10.515Z,100435.03
2023-04-11T21:47:38.613Z,100436.63
2023-04-11T21:50:07.784Z,100433.92
2023-04-11T21:52:35.675Z,100436.04
2023-04-11T21:55:06.438Z,100439.42
2023-04-11T21:57:36.114Z,100438.80
2023-04-11T22:00:05.607Z,100435.98
2023-04-11T22:02:41.127Z,100434.92
2023-04-11T22:05:09.798Z,100436.10
2023-04-11T22:07:38.555Z,100435.05
2023-04-11T22:10:10.040Z,100433.93
2023-04-11T22:12:38.936Z,100434.44
2023-04-11T22:15:07.826Z,100435.73
2023-04-11T22:17:37.336Z,100435.95
2023-04-11T22:20:06.924Z,100441.23
2023-04-11T22:22:35.459Z,100440.81
2023-04-11T22:25:03.614Z,100441.73
2023-04-11T22:27:34.652Z,100446.61
2023-04-11T22:30:03.115Z,100441.38
2023-04-11T22:32:31.161Z,100437.10
2023-04-11T22:34:59.967Z,100446.25
2023-04-11T22:37:53.839Z,100443.98
2023-04-11T22:40:24.653Z,100441.79
2023-04-11T22:42:54.152Z,100447.09
2023-04-11T22:45:23.428Z,100448.08
2023-04-11T22:47:54.353Z,100450.14
2023-04-11T22:50:23.641Z,100454.70
2023-04-11T22:52:51.644Z,100454.55
2023-04-11T22:55:21.307Z,100450.77
2023-04-11T22:57:49.877Z,100445.31
2023-04-11T23:00:18.891Z,100444.63
2023-04-11T23:02:47.339Z,100443.10
2023-04-11T23:05:16.896Z,100444.86
2023-04-11T23:07:45.239Z,100444.02
2023-04-11T23:10:15.375Z,100440.27
2023-04-11T23:12:44.558Z,100438.20
2023-04-11T23:15:12.578Z,100433.77
2023-04-11T23:17:41.521Z,100434.44
2023-04-11T23:20:11.217Z,100433.34
2023-04-11T23:22:42.243Z,100432.53
2023-04-11T23:25:14.205Z,100429.61
2023-04-11T23:27:43.663Z,100434.20
2023-04-11T23:30:12.813Z,100427.11
2023-04-11T23:32:41.584Z,100425.48
2023-04-11T23:35:09.628Z,100422.72
2023-04-11T23:37:37.682Z,100419.39
2023-04-11T23:40:10.574Z,100419.52
2023-04-11T23:42:39.656Z,100417.00
2023-04-11T23:45:09.042Z,100418.77
2023-04-11T23:47:37.460Z,100418.76
2023-04-11T23:50:05.979Z,100414.73
2023-04-11T23:52:34.475Z,100414.27
2023-04-11T23:55:02.553Z,100410.45
2023-04-11T23:57:30.538Z,100412.89
2023-04-11T23:59:58.411Z,100409.17
